createdAt,value
2018-11-01T00:01:44.000Z,99924
2018-11-01T00:02:44.000Z,99925
2018-11-01T00:03:44.000Z,99923
2018-11-01T00:05:44.000Z,99918
2018-11-01T00:07:44.000Z,99910
2018-11-01T00:09:44.000Z,99915
2018-11-01T00:11:44.000Z,99919
2018-11-01T00:12:44.000Z,99917
2018-11-01T00:14:44.000Z,99920
2018-11-01T00:16:44.000Z,99913
2018-11-01T00:17:44.000Z,99912
2018-11-01T00:19:44.000Z,99919
2018-11-01T00:20:44.000Z,99912
2018-11-01T00:22:28.000Z,99912
2018-11-01T00:23:44.000Z,99910
2018-11-01T00:25:28.000Z,99915
2018-11-01T00:26:44.000Z,99913
2018-11-01T00:27:44.000Z,99914
2018-11-01T00:29:44.000Z,99914
2018-11-01T00:31:44.000Z,99918
2018-11-01T00:33:44.000Z,99920
2018-11-01T00:34:44.000Z,99921
2018-11-01T00:36:28.000Z,99916
2018-11-01T00:37:44.000Z,99912
2018-11-01T00:39:44.000Z,99910
2018-11-01T00:40:44.000Z,99909
2018-11-01T00:42:44.000Z,99910
2018-11-01T00:44:44.000Z,99913
2018-11-01T00:45:44.000Z,99916
2018-11-01T00:47:44.000Z,99917
2018-11-01T00:49:29.000Z,99913
2018-11-01T00:50:44.000Z,99913
2018-11-01T00:52:44.000Z,99908
2018-11-01T00:53:44.000Z,99910
2018-11-01T00:55:44.000Z,99905
2018-11-01T00:56:44.000Z,99904
2018-11-01T00:58:29.000Z,99904
2018-11-01T00:59:44.000Z,99906
2018-11-01T01:01:29.000Z,99899
2018-11-01T01:02:29.000Z,99904
2018-11-01T01:03:44.000Z,99894
2018-11-01T01:05:44.000Z,99893
2018-11-01T01:07:44.000Z,99897
2018-11-01T01:09:44.000Z,99896
2018-11-01T01:10:44.000Z,99896
2018-11-01T01:11:44.000Z,99899
2018-11-01T01:13:44.000Z,99893
2018-11-01T01:14:44.000Z,99894
2018-11-01T01:15:44.000Z,99896
2018-11-01T01:17:44.000Z,99899
2018-11-01T01:19:44.000Z,99895
2018-11-01T01:21:44.000Z,99898
2018-11-01T01:23:44.000Z,99903
2018-11-01T01:25:44.000Z,99898
2018-11-01T01:27:29.000Z,99901
2018-11-01T01:28:44.000Z,99904
2018-11-01T01:29:44.000Z,99905
2018-11-01T01:31:44.000Z,99916
2018-11-01T01:32:44.000Z,99922
2018-11-01T01:34:44.000Z,99922
2018-11-01T01:36:29.000Z,99918
2018-11-01T01:37:44.000Z,99922
2018-11-01T01:39:29.000Z,99919
2018-11-01T01:40:44.000Z,99913
2018-11-01T01:42:44.000Z,99914
2018-11-01T01:44:44.000Z,99914
2018-11-01T01:45:44.000Z,99915
2018-11-01T01:47:44.000Z,99915
2018-11-01T01:48:43.000Z,99919
2018-11-01T01:50:28.000Z,99916
2018-11-01T01:51:43.000Z,99924
2018-11-01T01:52:43.000Z,99921
2018-11-01T01:54:43.000Z,99923
2018-11-01T01:56:43.000Z,99924
2018-11-01T01:58:28.000Z,99930
2018-11-01T01:59:43.000Z,99929
2018-11-01T02:00:43.000Z,99926
2018-11-01T02:01:43.000Z,99917
2018-11-01T02:03:43.000Z,99921
2018-11-01T02:05:28.000Z,99915
2018-11-01T02:06:43.000Z,99917
2018-11-01T02:08:43.000Z,99913
2018-11-01T02:10:43.000Z,99914
2018-11-01T02:12:28.000Z,99904
2018-11-01T02:13:43.000Z,99904
2018-11-01T02:15:43.000Z,99895
2018-11-01T02:16:43.000Z,99892
2018-11-01T02:17:43.000Z,99887
2018-11-01T02:19:43.000Z,99884
2018-11-01T02:21:43.000Z,99881
2018-11-01T02:23:43.000Z,99881
2018-11-01T02:25:43.000Z,99884
2018-11-01T02:27:43.000Z,99889
2018-11-01T02:29:43.000Z,99888
2018-11-01T02:30:43.000Z,99887
2018-11-01T02:31:43.000Z,99887
2018-11-01T02:33:43.000Z,99886
2018-11-01T02:34:43.000Z,99885
2018-11-01T02:35:43.000Z,99884
2018-11-01T02:37:28.000Z,99891
2018-11-01T02:38:43.000Z,99890
2018-11-01T02:40:28.000Z,99896
2018-11-01T02:41:43.000Z,99895
2018-11-01T02:42:43.000Z,99893
2018-11-01T02:43:43.000Z,99890
2018-11-01T02:45:28.000Z,99881
2018-11-01T02:46:43.000Z,99872
2018-11-01T02:48:43.000Z,99852
2018-11-01T02:50:43.000Z,99844
2018-11-01T02:51:43.000Z,99842
2018-11-01T02:52:43.000Z,99844
2018-11-01T02:54:43.000Z,99852
2018-11-01T02:56:13.000Z,99849
2018-11-01T02:57:43.000Z,99842
2018-11-01T02:59:43.000Z,99840
2018-11-01T03:01:43.000Z,99835
2018-11-01T03:03:28.000Z,99840
2018-11-01T03:04:43.000Z,99837
2018-11-01T03:06:43.000Z,99846
2018-11-01T03:08:43.000Z,99846
2018-11-01T03:10:43.000Z,99847
2018-11-01T03:11:43.000Z,99846
2018-11-01T03:13:43.000Z,99845
2018-11-01T03:15:43.000Z,99845
2018-11-01T03:17:43.000Z,99843
2018-11-01T03:19:28.000Z,99837
2018-11-01T03:20:43.000Z,99844
2018-11-01T03:22:43.000Z,99836
2018-11-01T03:23:43.000Z,99843
2018-11-01T03:25:43.000Z,99847
2018-11-01T03:26:43.000Z,99847
2018-11-01T03:27:43.000Z,99852
2018-11-01T03:28:43.000Z,99855
2018-11-01T03:30:28.000Z,99855
2018-11-01T03:31:43.000Z,99856
2018-11-01T03:32:43.000Z,99857
2018-11-01T03:34:43.000Z,99854
2018-11-01T03:36:43.000Z,99850
2018-11-01T03:38:43.000Z,99845
2018-11-01T03:40:43.000Z,99851
2018-11-01T03:42:43.000Z,99847
2018-11-01T03:43:43.000Z,99846
2018-11-01T03:45:43.000Z,99855
2018-11-01T03:47:43.000Z,99851
2018-11-01T03:49:43.000Z,99857
2018-11-01T03:51:28.000Z,99856
2018-11-01T03:52:43.000Z,99852
2018-11-01T03:53:43.000Z,99854
2018-11-01T03:54:43.000Z,99858
2018-11-01T03:56:43.000Z,99855
2018-11-01T03:57:43.000Z,99850
2018-11-01T03:59:43.000Z,99848
2018-11-01T04:00:43.000Z,99842
2018-11-01T04:02:43.000Z,99845
2018-11-01T04:04:43.000Z,99837
2018-11-01T04:05:43.000Z,99835
2018-11-01T04:06:43.000Z,99835
2018-11-01T04:08:43.000Z,99825
2018-11-01T04:10:28.000Z,99828
2018-11-01T04:11:43.000Z,99821
2018-11-01T04:12:43.000Z,99819
2018-11-01T04:13:43.000Z,99812
2018-11-01T04:14:43.000Z,99813
2018-11-01T04:16:43.000Z,99806
2018-11-01T04:17:43.000Z,99806
2018-11-01T04:19:43.000Z,99807
2018-11-01T04:21:43.000Z,99803
2018-11-01T04:22:43.000Z,99802
2018-11-01T04:24:43.000Z,99798
2018-11-01T04:26:43.000Z,99794
2018-11-01T04:28:43.000Z,99795
2018-11-01T04:30:43.000Z,99793
2018-11-01T04:32:43.000Z,99789
2018-11-01T04:34:43.000Z,99780
2018-11-01T04:36:43.000Z,99780
2018-11-01T04:38:43.000Z,99786
2018-11-01T04:39:43.000Z,99786
2018-11-01T04:40:43.000Z,99786
2018-11-01T04:42:43.000Z,99792
2018-11-01T04:44:43.000Z,99791
2018-11-01T04:46:43.000Z,99800
2018-11-01T04:47:43.000Z,99804
2018-11-01T04:48:43.000Z,99808
2018-11-01T04:49:43.000Z,99811
2018-11-01T04:51:43.000Z,99811
2018-11-01T04:53:43.000Z,99816
2018-11-01T04:54:43.000Z,99824
2018-11-01T04:56:43.000Z,99822
2018-11-01T04:57:43.000Z,99822
2018-11-01T04:58:43.000Z,99818
2018-11-01T05:00:44.000Z,99814
2018-11-01T05:02:44.000Z,99801
2018-11-01T05:04:44.000Z,99800
2018-11-01T05:06:44.000Z,99796
2018-11-01T05:07:44.000Z,99799
2018-11-01T05:08:44.000Z,99804
2018-11-01T05:10:44.000Z,99803
2018-11-01T05:12:28.000Z,99804
2018-11-01T05:13:44.000Z,99798
2018-11-01T05:14:44.000Z,99798
2018-11-01T05:16:44.000Z,99805
2018-11-01T05:18:44.000Z,99803
2018-11-01T05:20:44.000Z,99793
2018-11-01T05:22:44.000Z,99789
2018-11-01T05:24:44.000Z,99790
2018-11-01T05:26:28.000Z,99792
2018-11-01T05:27:44.000Z,99791
2018-11-01T05:28:44.000Z,99792
2018-11-01T05:30:44.000Z,99787
2018-11-01T05:31:44.000Z,99785
2018-11-01T05:33:28.000Z,99785
2018-11-01T05:34:44.000Z,99790
2018-11-01T05:35:44.000Z,99796
2018-11-01T05:37:44.000Z,99793
2018-11-01T05:39:44.000Z,99791
2018-11-01T05:41:44.000Z,99796
2018-11-01T05:43:44.000Z,99803
2018-11-01T05:45:44.000Z,99802
2018-11-01T05:46:44.000Z,99807
2018-11-01T05:48:44.000Z,99803
2018-11-01T05:49:44.000Z,99802
2018-11-01T05:50:44.000Z,99804
2018-11-01T05:52:44.000Z,99809
2018-11-01T05:54:44.000Z,99807
2018-11-01T05:55:44.000Z,99811
2018-11-01T05:57:44.000Z,99807
2018-11-01T05:59:28.000Z,99811
2018-11-01T06:00:44.000Z,99805
2018-11-01T06:02:44.000Z,99813
2018-11-01T06:04:43.000Z,99813
2018-11-01T06:06:43.000Z,99814
2018-11-01T06:07:43.000Z,99810
2018-11-01T06:09:43.000Z,99802
2018-11-01T06:11:43.000Z,99801
2018-11-01T06:13:43.000Z,99804
2018-11-01T06:15:43.000Z,99795
2018-11-01T06:17:28.000Z,99792
2018-11-01T06:18:43.000Z,99788
2018-11-01T06:19:43.000Z,99794
2018-11-01T06:21:43.000Z,99796
2018-11-01T06:22:43.000Z,99793
2018-11-01T06:24:43.000Z,99797
2018-11-01T06:26:43.000Z,99796
2018-11-01T06:28:43.000Z,99795
2018-11-01T06:30:28.000Z,99799
2018-11-01T06:31:43.000Z,99800
2018-11-01T06:32:43.000Z,99804
2018-11-01T06:33:43.000Z,99803
2018-11-01T06:35:43.000Z,99808
2018-11-01T06:36:43.000Z,99809
2018-11-01T06:38:43.000Z,99816
2018-11-01T06:40:43.000Z,99823
2018-11-01T06:41:43.000Z,99824
2018-11-01T06:43:43.000Z,99828
2018-11-01T06:45:43.000Z,99819
2018-11-01T06:47:43.000Z,99817
2018-11-01T06:49:28.000Z,99813
2018-11-01T06:50:28.000Z,99813
2018-11-01T06:51:43.000Z,99815
2018-11-01T06:52:43.000Z,99817
2018-11-01T06:53:43.000Z,99814
2018-11-01T06:55:43.000Z,99815
2018-11-01T06:57:43.000Z,99812
2018-11-01T06:59:43.000Z,99809
2018-11-01T07:01:43.000Z,99800
2018-11-01T07:02:43.000Z,99805
2018-11-01T07:03:43.000Z,99804
2018-11-01T07:05:43.000Z,99803
2018-11-01T07:07:28.000Z,99806
2018-11-01T07:08:43.000Z,99801
2018-11-01T07:10:43.000Z,99797
2018-11-01T07:11:43.000Z,99795
2018-11-01T07:13:43.000Z,99796
2018-11-01T07:14:43.000Z,99795
2018-11-01T07:15:43.000Z,99789
2018-11-01T07:17:43.000Z,99790
2018-11-01T07:18:43.000Z,99785
2018-11-01T07:20:43.000Z,99783
2018-11-01T07:22:43.000Z,99785
2018-11-01T07:23:43.000Z,99790
2018-11-01T07:25:43.000Z,99791
2018-11-01T07:26:43.000Z,99797
2018-11-01T07:27:43.000Z,99795
2018-11-01T07:29:43.000Z,99795
2018-11-01T07:30:43.000Z,99799
2018-11-01T07:32:43.000Z,99796
2018-11-01T07:33:43.000Z,99791
2018-11-01T07:34:43.000Z,99787
2018-11-01T07:36:43.000Z,99787
2018-11-01T07:38:43.000Z,99777
2018-11-01T07:40:43.000Z,99788
2018-11-01T07:42:43.000Z,99780
2018-11-01T07:43:43.000Z,99782
2018-11-01T07:45:43.000Z,99781
2018-11-01T07:47:43.000Z,99778
2018-11-01T07:48:43.000Z,99777
2018-11-01T07:50:28.000Z,99771
2018-11-01T07:51:43.000Z,99770
2018-11-01T07:53:43.000Z,99771
2018-11-01T07:55:28.000Z,99768
2018-11-01T07:56:43.000Z,99772
2018-11-01T07:57:43.000Z,99776
2018-11-01T07:58:43.000Z,99780
2018-11-01T08:00:43.000Z,99777
2018-11-01T08:02:43.000Z,99777
2018-11-01T08:03:43.000Z,99780
2018-11-01T08:05:43.000Z,99778
2018-11-01T08:07:43.000Z,99783
2018-11-01T08:09:43.000Z,99780
2018-11-01T08:11:43.000Z,99775
2018-11-01T08:12:43.000Z,99775
2018-11-01T08:14:43.000Z,99778
2018-11-01T08:16:43.000Z,99774
2018-11-01T08:18:43.000Z,99773
2018-11-01T08:20:43.000Z,99770
2018-11-01T08:21:43.000Z,99776
2018-11-01T08:23:43.000Z,99772
2018-11-01T08:25:43.000Z,99775
2018-11-01T08:27:43.000Z,99773
2018-11-01T08:29:43.000Z,99769
2018-11-01T08:30:43.000Z,99770
2018-11-01T08:32:28.000Z,99769
2018-11-01T08:33:43.000Z,99762
2018-11-01T08:34:43.000Z,99762
2018-11-01T08:36:43.000Z,99764
2018-11-01T08:37:43.000Z,99761
2018-11-01T08:38:43.000Z,99756
2018-11-01T08:40:43.000Z,99751
2018-11-01T08:41:43.000Z,99752
2018-11-01T08:42:43.000Z,99749
2018-11-01T08:44:43.000Z,99741
2018-11-01T08:45:43.000Z,99741
2018-11-01T08:46:43.000Z,99737
2018-11-01T08:48:43.000Z,99720
2018-11-01T08:50:43.000Z,99720
2018-11-01T08:52:43.000Z,99721
2018-11-01T08:54:43.000Z,99721
2018-11-01T08:56:43.000Z,99717
2018-11-01T08:58:43.000Z,99721
2018-11-01T08:59:43.000Z,99727
2018-11-01T09:01:43.000Z,99726
2018-11-01T09:02:43.000Z,99730
2018-11-01T09:04:43.000Z,99732
2018-11-01T09:06:43.000Z,99734
2018-11-01T09:08:43.000Z,99734
2018-11-01T09:10:43.000Z,99735
2018-11-01T09:12:43.000Z,99738
2018-11-01T09:13:43.000Z,99742
2018-11-01T09:15:43.000Z,99744
2018-11-01T09:16:43.000Z,99737
2018-11-01T09:17:43.000Z,99740
2018-11-01T09:18:43.000Z,99740
2018-11-01T09:20:43.000Z,99740
2018-11-01T09:22:43.000Z,99745
2018-11-01T09:23:43.000Z,99741
2018-11-01T09:25:43.000Z,99740
2018-11-01T09:27:28.000Z,99743
2018-11-01T09:28:43.000Z,99753
2018-11-01T09:30:28.000Z,99750
2018-11-01T09:31:43.000Z,99754
2018-11-01T09:32:43.000Z,99749
2018-11-01T09:34:43.000Z,99747
2018-11-01T09:36:28.000Z,99746
2018-11-01T09:37:43.000Z,99746
2018-11-01T09:39:43.000Z,99751
2018-11-01T09:41:43.000Z,99755
2018-11-01T09:42:43.000Z,99755
2018-11-01T09:43:43.000Z,99749
2018-11-01T09:45:43.000Z,99754
2018-11-01T09:46:43.000Z,99750
2018-11-01T09:48:28.000Z,99745
2018-11-01T09:49:43.000Z,99741
2018-11-01T09:51:43.000Z,99738
2018-11-01T09:53:43.000Z,99738
2018-11-01T09:54:43.000Z,99739
2018-11-01T09:55:43.000Z,99739
2018-11-01T09:57:28.000Z,99742
2018-11-01T09:58:43.000Z,99742
2018-11-01T10:00:43.000Z,99745
2018-11-01T10:01:43.000Z,99741
2018-11-01T10:03:43.000Z,99750
2018-11-01T10:05:43.000Z,99762
2018-11-01T10:07:43.000Z,99764
2018-11-01T10:09:43.000Z,99773
2018-11-01T10:10:43.000Z,99773
2018-11-01T10:11:43.000Z,99765
2018-11-01T10:12:43.000Z,99770
2018-11-01T10:14:43.000Z,99762
2018-11-01T10:15:43.000Z,99757
2018-11-01T10:17:13.000Z,99753
2018-11-01T10:18:44.000Z,99758
2018-11-01T10:19:44.000Z,99754
2018-11-01T10:21:44.000Z,99750
2018-11-01T10:22:44.000Z,99752
2018-11-01T10:24:29.000Z,99757
2018-11-01T10:25:44.000Z,99749
2018-11-01T10:26:44.000Z,99749
2018-11-01T10:28:44.000Z,99758
2018-11-01T10:30:44.000Z,99754
2018-11-01T10:32:29.000Z,99751
2018-11-01T10:33:29.000Z,99751
2018-11-01T10:34:44.000Z,99749
2018-11-01T10:35:44.000Z,99735
2018-11-01T10:36:44.000Z,99735
2018-11-01T10:38:44.000Z,99729
2018-11-01T10:40:44.000Z,99723
2018-11-01T10:42:29.000Z,99725
2018-11-01T10:43:44.000Z,99722
2018-11-01T10:45:44.000Z,99728
2018-11-01T10:47:44.000Z,99729
2018-11-01T10:49:44.000Z,99728
2018-11-01T10:51:44.000Z,99723
2018-11-01T10:53:44.000Z,99727
2018-11-01T10:54:44.000Z,99732
2018-11-01T10:56:44.000Z,99732
2018-11-01T10:58:44.000Z,99742
2018-11-01T10:59:44.000Z,99742
2018-11-01T11:00:44.000Z,99748
2018-11-01T11:02:13.000Z,99743
2018-11-01T11:03:44.000Z,99748
2018-11-01T11:04:44.000Z,99745
2018-11-01T11:06:44.000Z,99742
2018-11-01T11:08:29.000Z,99736
2018-11-01T11:09:44.000Z,99740
2018-11-01T11:11:44.000Z,99731
2018-11-01T11:12:44.000Z,99723
2018-11-01T11:14:44.000Z,99718
2018-11-01T11:15:44.000Z,99717
2018-11-01T11:18:44.000Z,99704
2018-11-01T11:20:44.000Z,99704
2018-11-01T11:21:44.000Z,99707
2018-11-01T11:23:44.000Z,99708
2018-11-01T11:25:44.000Z,99699
2018-11-01T11:27:44.000Z,99696
2018-11-01T11:29:44.000Z,99693
2018-11-01T11:31:13.000Z,99688
2018-11-01T11:32:44.000Z,99690
2018-11-01T11:33:44.000Z,99685
2018-11-01T11:35:44.000Z,99673
2018-11-01T11:37:44.000Z,99679
2018-11-01T11:39:44.000Z,99677
2018-11-01T11:41:44.000Z,99679
2018-11-01T11:42:44.000Z,99679
2018-11-01T11:44:44.000Z,99673
2018-11-01T11:46:44.000Z,99663
2018-11-01T11:47:44.000Z,99671
2018-11-01T11:49:44.000Z,99665
2018-11-01T11:50:44.000Z,99661
2018-11-01T11:52:44.000Z,99653
2018-11-01T11:53:44.000Z,99647
2018-11-01T11:54:44.000Z,99643
2018-11-01T11:56:44.000Z,99642
2018-11-01T11:58:44.000Z,99645
2018-11-01T12:00:29.000Z,99644
2018-11-01T12:01:44.000Z,99644
2018-11-01T12:02:44.000Z,99647
2018-11-01T12:04:44.000Z,99650
2018-11-01T12:05:44.000Z,99661
2018-11-01T12:06:44.000Z,99659
2018-11-01T12:08:29.000Z,99670
2018-11-01T12:09:29.000Z,99666
2018-11-01T12:10:44.000Z,99665
2018-11-01T12:11:44.000Z,99666
2018-11-01T12:13:44.000Z,99657
2018-11-01T12:15:29.000Z,99663
2018-11-01T12:16:44.000Z,99661
2018-11-01T12:18:29.000Z,99660
2018-11-01T12:19:44.000Z,99666
2018-11-01T12:20:44.000Z,99665
2018-11-01T12:22:29.000Z,99671
2018-11-01T12:23:44.000Z,99679
2018-11-01T12:24:44.000Z,99668
2018-11-01T12:25:44.000Z,99664
2018-11-01T12:26:44.000Z,99655
2018-11-01T12:27:44.000Z,99659
2018-11-01T12:29:44.000Z,99654
2018-11-01T12:31:44.000Z,99660
2018-11-01T12:33:44.000Z,99664
2018-11-01T12:35:28.000Z,99666
2018-11-01T12:36:28.000Z,99662
2018-11-01T12:37:44.000Z,99651
2018-11-01T12:39:44.000Z,99654
2018-11-01T12:40:44.000Z,99661
2018-11-01T12:42:44.000Z,99661
2018-11-01T12:44:28.000Z,99663
2018-11-01T12:45:44.000Z,99656
2018-11-01T12:46:44.000Z,99662
2018-11-01T12:48:44.000Z,99662
2018-11-01T12:50:28.000Z,99659
2018-11-01T12:51:44.000Z,99650
2018-11-01T12:53:44.000Z,99650
2018-11-01T12:54:44.000Z,99650
2018-11-01T12:56:44.000Z,99649
2018-11-01T12:58:28.000Z,99655
2018-11-01T12:59:44.000Z,99654
2018-11-01T13:00:44.000Z,99656
2018-11-01T13:01:44.000Z,99661
2018-11-01T13:02:44.000Z,99656
2018-11-01T13:04:28.000Z,99651
2018-11-01T13:06:44.000Z,99664
2018-11-01T13:08:44.000Z,99666
2018-11-01T13:10:44.000Z,99664
2018-11-01T13:11:44.000Z,99671
2018-11-01T13:13:44.000Z,99672
2018-11-01T13:15:44.000Z,99671
2018-11-01T13:17:44.000Z,99676
2018-11-01T13:19:44.000Z,99676
2018-11-01T13:20:44.000Z,99683
2018-11-01T13:22:44.000Z,99694
2018-11-01T13:24:44.000Z,99696
2018-11-01T13:26:44.000Z,99701
2018-11-01T13:28:43.000Z,99699
2018-11-01T13:30:44.000Z,99707
2018-11-01T13:32:44.000Z,99712
2018-11-01T13:34:43.000Z,99709
2018-11-01T13:36:28.000Z,99707
2018-11-01T13:37:43.000Z,99707
2018-11-01T13:38:44.000Z,99696
2018-11-01T13:40:28.000Z,99696
2018-11-01T13:41:44.000Z,99697
2018-11-01T13:43:43.000Z,99702
2018-11-01T13:45:44.000Z,99701
2018-11-01T13:47:44.000Z,99705
2018-11-01T13:49:28.000Z,99699
2018-11-01T13:50:28.000Z,99700
2018-11-01T13:51:44.000Z,99690
2018-11-01T13:52:44.000Z,99705
2018-11-01T13:54:44.000Z,99702
2018-11-01T13:55:44.000Z,99702
2018-11-01T13:57:13.000Z,99696
2018-11-01T13:58:44.000Z,99695
2018-11-01T14:00:28.000Z,99704
2018-11-01T14:01:44.000Z,99703
2018-11-01T14:03:44.000Z,99702
2018-11-01T14:05:44.000Z,99702
2018-11-01T14:06:44.000Z,99704
2018-11-01T14:08:28.000Z,99710
2018-11-01T14:09:44.000Z,99713
2018-11-01T14:11:44.000Z,99708
2018-11-01T14:13:44.000Z,99709
2018-11-01T14:15:44.000Z,99713
2018-11-01T14:17:44.000Z,99710
2018-11-01T14:19:44.000Z,99712
2018-11-01T14:20:44.000Z,99714
2018-11-01T14:22:44.000Z,99713
2018-11-01T14:23:44.000Z,99714
2018-11-01T14:25:44.000Z,99718
2018-11-01T14:26:44.000Z,99717
2018-11-01T14:28:44.000Z,99717
2018-11-01T14:30:44.000Z,99716
2018-11-01T14:33:44.000Z,99725
2018-11-01T14:35:44.000Z,99720
2018-11-01T14:37:44.000Z,99725
2018-11-01T14:38:44.000Z,99721
2018-11-01T14:40:28.000Z,99727
2018-11-01T14:41:44.000Z,99721
2018-11-01T14:42:44.000Z,99721
2018-11-01T14:44:13.000Z,99726
2018-11-01T14:45:44.000Z,99726
2018-11-01T14:47:44.000Z,99728
2018-11-01T14:49:28.000Z,99732
2018-11-01T14:50:44.000Z,99737
2018-11-01T14:52:44.000Z,99740
2018-11-01T14:53:44.000Z,99746
2018-11-01T14:54:44.000Z,99738
2018-11-01T14:56:44.000Z,99739
2018-11-01T14:57:44.000Z,99747
2018-11-01T14:59:44.000Z,99743
2018-11-01T15:01:44.000Z,99747
2018-11-01T15:02:44.000Z,99748
2018-11-01T15:04:28.000Z,99738
2018-11-01T15:05:44.000Z,99738
2018-11-01T15:07:44.000Z,99745
2018-11-01T15:09:28.000Z,99742
2018-11-01T15:10:44.000Z,99739
2018-11-01T15:11:44.000Z,99743
2018-11-01T15:13:44.000Z,99743
2018-11-01T15:15:28.000Z,99746
2018-11-01T15:16:28.000Z,99742
2018-11-01T15:17:44.000Z,99748
2018-11-01T15:19:44.000Z,99747
2018-11-01T15:21:28.000Z,99749
2018-11-01T15:22:44.000Z,99747
2018-11-01T15:24:44.000Z,99757
2018-11-01T15:26:28.000Z,99755
2018-11-01T15:27:44.000Z,99755
2018-11-01T15:29:44.000Z,99751
2018-11-01T15:31:44.000Z,99755
2018-11-01T15:33:44.000Z,99748
2018-11-01T15:35:28.000Z,99758
2018-11-01T15:36:43.000Z,99756
2018-11-01T15:38:43.000Z,99754
2018-11-01T15:39:43.000Z,99756
2018-11-01T15:41:43.000Z,99755
2018-11-01T15:43:43.000Z,99752
2018-11-01T15:45:43.000Z,99754
2018-11-01T15:47:43.000Z,99749
2018-11-01T15:48:43.000Z,99751
2018-11-01T15:50:28.000Z,99748
2018-11-01T15:52:43.000Z,99754
2018-11-01T15:54:43.000Z,99752
2018-11-01T15:56:43.000Z,99749
2018-11-01T15:57:43.000Z,99750
2018-11-01T15:59:43.000Z,99755
2018-11-01T16:01:43.000Z,99757
2018-11-01T16:02:43.000Z,99752
2018-11-01T16:03:43.000Z,99758
2018-11-01T16:05:43.000Z,99758
2018-11-01T16:06:43.000Z,99760
2018-11-01T16:08:28.000Z,99757
2018-11-01T16:09:43.000Z,99755
2018-11-01T16:11:43.000Z,99754
2018-11-01T16:13:43.000Z,99756
2018-11-01T16:15:43.000Z,99756
2018-11-01T16:17:43.000Z,99759
2018-11-01T16:19:43.000Z,99759
2018-11-01T16:21:13.000Z,99755
2018-11-01T16:22:43.000Z,99757
2018-11-01T16:24:43.000Z,99757
2018-11-01T16:26:43.000Z,99754
2018-11-01T16:28:28.000Z,99751
2018-11-01T16:29:43.000Z,99761
2018-11-01T16:31:43.000Z,99752
2018-11-01T16:32:43.000Z,99760
2018-11-01T16:34:43.000Z,99743
2018-11-01T16:36:28.000Z,99755
2018-11-01T16:37:43.000Z,99753
2018-11-01T16:39:43.000Z,99757
2018-11-01T16:40:43.000Z,99756
2018-11-01T16:42:43.000Z,99757
2018-11-01T16:44:43.000Z,99754
2018-11-01T16:46:43.000Z,99758
2018-11-01T16:48:28.000Z,99752
2018-11-01T16:49:43.000Z,99749
2018-11-01T16:50:43.000Z,99742
2018-11-01T16:52:28.000Z,99736
2018-11-01T16:53:43.000Z,99737
2018-11-01T16:54:43.000Z,99733
2018-11-01T16:56:43.000Z,99740
2018-11-01T16:58:43.000Z,99737
2018-11-01T17:00:43.000Z,99739
2018-11-01T17:01:43.000Z,99733
2018-11-01T17:03:43.000Z,99739
2018-11-01T17:05:43.000Z,99736
2018-11-01T17:06:43.000Z,99737
2018-11-01T17:08:43.000Z,99733
2018-11-01T17:10:43.000Z,99738
2018-11-01T17:12:28.000Z,99737
2018-11-01T17:13:43.000Z,99743
2018-11-01T17:15:43.000Z,99741
2018-11-01T17:17:43.000Z,99736
2018-11-01T17:18:43.000Z,99734
2018-11-01T17:20:43.000Z,99735
2018-11-01T17:22:43.000Z,99736
2018-11-01T17:24:43.000Z,99737
2018-11-01T17:26:43.000Z,99737
2018-11-01T17:27:43.000Z,99742
2018-11-01T17:29:43.000Z,99736
2018-11-01T17:31:43.000Z,99734
2018-11-01T17:32:43.000Z,99737
2018-11-01T17:34:28.000Z,99735
2018-11-01T17:35:43.000Z,99732
2018-11-01T17:37:43.000Z,99736
2018-11-01T17:39:28.000Z,99738
2018-11-01T17:40:43.000Z,99739
2018-11-01T17:42:43.000Z,99748
2018-11-01T17:44:28.000Z,99749
2018-11-01T17:45:43.000Z,99756
2018-11-01T17:47:43.000Z,99749
2018-11-01T17:49:43.000Z,99748
2018-11-01T17:51:43.000Z,99753
2018-11-01T17:53:13.000Z,99757
2018-11-01T17:54:43.000Z,99758
2018-11-01T17:56:28.000Z,99757
2018-11-01T17:57:43.000Z,99759
2018-11-01T17:59:28.000Z,99754
2018-11-01T18:00:43.000Z,99757
2018-11-01T18:02:28.000Z,99758
2018-11-01T18:03:43.000Z,99752
2018-11-01T18:04:43.000Z,99750
2018-11-01T18:05:43.000Z,99751
2018-11-01T18:07:43.000Z,99748
2018-11-01T18:09:43.000Z,99750
2018-11-01T18:11:43.000Z,99751
2018-11-01T18:13:43.000Z,99749
2018-11-01T18:15:28.000Z,99749
2018-11-01T18:16:43.000Z,99753
2018-11-01T18:18:43.000Z,99754
2018-11-01T18:20:43.000Z,99754
2018-11-01T18:22:43.000Z,99758
2018-11-01T18:23:43.000Z,99758
2018-11-01T18:25:28.000Z,99761
2018-11-01T18:27:43.000Z,99761
2018-11-01T18:28:43.000Z,99761
2018-11-01T18:30:43.000Z,99767
2018-11-01T18:32:43.000Z,99764
2018-11-01T18:34:43.000Z,99764
2018-11-01T18:35:43.000Z,99762
2018-11-01T18:37:43.000Z,99766
2018-11-01T18:39:28.000Z,99769
2018-11-01T18:40:43.000Z,99777
2018-11-01T18:42:43.000Z,99777
2018-11-01T18:44:43.000Z,99780
2018-11-01T18:46:43.000Z,99786
2018-11-01T18:48:43.000Z,99782
2018-11-01T18:50:43.000Z,99794
2018-11-01T18:52:13.000Z,99790
2018-11-01T18:53:43.000Z,99796
2018-11-01T18:54:43.000Z,99793
2018-11-01T18:56:28.000Z,99802
2018-11-01T18:57:43.000Z,99798
2018-11-01T18:59:43.000Z,99802
2018-11-01T19:01:43.000Z,99800
2018-11-01T19:02:43.000Z,99798
2018-11-01T19:04:43.000Z,99801
2018-11-01T19:06:43.000Z,99808
2018-11-01T19:08:43.000Z,99804
2018-11-01T19:10:43.000Z,99794
2018-11-01T19:11:43.000Z,99799
2018-11-01T19:12:43.000Z,99795
2018-11-01T19:14:29.000Z,99800
2018-11-01T19:15:43.000Z,99800
2018-11-01T19:16:43.000Z,99794
2018-11-01T19:18:43.000Z,99797
2018-11-01T19:20:28.000Z,99794
2018-11-01T19:21:43.000Z,99795
2018-11-01T19:23:43.000Z,99788
2018-11-01T19:25:43.000Z,99792
2018-11-01T19:27:28.000Z,99792
2018-11-01T19:28:43.000Z,99792
2018-11-01T19:29:43.000Z,99792
2018-11-01T19:31:43.000Z,99797
2018-11-01T19:33:43.000Z,99796
2018-11-01T19:35:43.000Z,99799
2018-11-01T19:37:43.000Z,99806
2018-11-01T19:38:43.000Z,99805
2018-11-01T19:39:43.000Z,99810
2018-11-01T19:40:43.000Z,99815
2018-11-01T19:41:43.000Z,99812
2018-11-01T19:43:43.000Z,99816
2018-11-01T19:44:43.000Z,99816
2018-11-01T19:46:43.000Z,99819
2018-11-01T19:47:43.000Z,99816
2018-11-01T19:49:43.000Z,99822
2018-11-01T19:51:44.000Z,99821
2018-11-01T19:53:44.000Z,99819
2018-11-01T19:54:44.000Z,99815
2018-11-01T19:56:44.000Z,99817
2018-11-01T19:58:44.000Z,99816
2018-11-01T19:59:44.000Z,99816
2018-11-01T20:01:44.000Z,99812
2018-11-01T20:03:44.000Z,99812
2018-11-01T20:05:44.000Z,99813
2018-11-01T20:07:44.000Z,99812
2018-11-01T20:09:44.000Z,99808
2018-11-01T20:10:44.000Z,99816
2018-11-01T20:12:44.000Z,99813
2018-11-01T20:13:44.000Z,99820
2018-11-01T20:15:44.000Z,99823
2018-11-01T20:17:44.000Z,99819
2018-11-01T20:19:44.000Z,99828
2018-11-01T20:21:44.000Z,99819
2018-11-01T20:23:44.000Z,99833
2018-11-01T20:24:44.000Z,99832
2018-11-01T20:26:29.000Z,99830
2018-11-01T20:27:44.000Z,99827
2018-11-01T20:29:44.000Z,99827
2018-11-01T20:31:44.000Z,99825
2018-11-01T20:33:44.000Z,99823
2018-11-01T20:35:44.000Z,99821
2018-11-01T20:37:44.000Z,99831
2018-11-01T20:39:44.000Z,99824
2018-11-01T20:40:44.000Z,99828